createdAt,value
2018-09-27T00:01:21.330Z,2.30
2018-09-27T00:03:48.837Z,2.73
2018-09-27T00:06:16.418Z,1.93
2018-09-27T00:08:43.976Z,2.17
2018-09-27T00:11:11.526Z,2.80
2018-09-27T00:13:39.036Z,2.23
2018-09-27T00:16:06.586Z,2.23
2018-09-27T00:18:34.239Z,2.70
2018-09-27T00:21:01.798Z,2.33
2018-09-27T00:23:29.317Z,2.40
2018-09-27T00:25:56.889Z,2.30
2018-09-27T00:28:24.505Z,2.13
2018-09-27T00:30:52.125Z,2.60
2018-09-27T00:33:19.839Z,2.00
2018-09-27T00:35:47.407Z,1.90
2018-09-27T00:38:15.018Z,2.20
2018-09-27T00:40:42.530Z,2.23
2018-09-27T00:43:10.186Z,2.10
2018-09-27T00:45:41.649Z,2.80
2018-09-27T00:48:09.992Z,2.30
2018-09-27T00:50:37.414Z,2.33
2018-09-27T00:53:04.866Z,2.10
2018-09-27T00:55:32.262Z,2.43
2018-09-27T00:57:59.750Z,2.23
2018-09-27T01:00:27.174Z,2.17
2018-09-27T01:02:55.049Z,2.50
2018-09-27T01:05:22.571Z,2.43
2018-09-27T01:07:50.048Z,2.30
2018-09-27T01:10:17.545Z,2.73
2018-09-27T01:12:44.918Z,2.30
2018-09-27T01:15:12.350Z,2.50
2018-09-27T01:17:39.894Z,2.60
2018-09-27T01:20:07.294Z,2.40
2018-09-27T01:22:34.665Z,2.50
2018-09-27T01:25:02.134Z,2.50
2018-09-27T01:27:29.494Z,2.50
2018-09-27T01:29:57.042Z,2.77
2018-09-27T01:32:24.507Z,2.60
2018-09-27T01:34:51.933Z,2.63
2018-09-27T01:37:19.302Z,2.20
2018-09-27T01:39:46.722Z,2.60
2018-09-27T01:42:14.119Z,2.37
2018-09-27T01:44:41.596Z,2.40
2018-09-27T01:47:09.148Z,2.47
2018-09-27T01:49:36.662Z,2.50
2018-09-27T01:52:04.069Z,2.23
2018-09-27T01:54:31.469Z,2.53
2018-09-27T01:56:58.945Z,2.40
2018-09-27T01:59:26.360Z,2.70
2018-09-27T02:01:53.771Z,2.20
2018-09-27T02:04:21.209Z,2.40
2018-09-27T02:06:48.645Z,2.57
2018-09-27T02:09:16.077Z,2.60
2018-09-27T02:11:43.466Z,2.43
2018-09-27T02:14:10.829Z,2.43
2018-09-27T02:16:38.379Z,2.63
2018-09-27T02:19:05.783Z,2.20
2018-09-27T02:21:33.180Z,2.73
2018-09-27T02:24:00.562Z,2.60
2018-09-27T02:26:27.958Z,2.63
2018-09-27T02:28:55.349Z,2.70
2018-09-27T02:31:22.770Z,2.83
2018-09-27T02:33:50.146Z,2.90
2018-09-27T02:36:17.567Z,2.57
2018-09-27T02:38:44.978Z,2.83
2018-09-27T02:41:12.378Z,2.77
2018-09-27T02:43:39.786Z,3.17
2018-09-27T02:46:07.203Z,2.90
2018-09-27T02:48:34.577Z,2.47
2018-09-27T02:51:01.970Z,2.77
2018-09-27T02:53:29.365Z,2.53
2018-09-27T02:55:56.785Z,2.73
2018-09-27T02:58:24.129Z,3.30
2018-09-27T03:00:51.509Z,2.70
2018-09-27T03:03:18.890Z,2.73
2018-09-27T03:05:46.294Z,2.90
2018-09-27T03:08:13.669Z,2.80
2018-09-27T03:10:41.054Z,2.90
2018-09-27T03:13:08.602Z,2.50
2018-09-27T03:15:35.996Z,2.80
2018-09-27T03:18:03.378Z,3.10
2018-09-27T03:20:30.905Z,3.10
2018-09-27T03:22:58.281Z,2.60
2018-09-27T03:25:25.845Z,3.20
2018-09-27T03:27:53.265Z,2.90
2018-09-27T03:30:20.649Z,3.00
2018-09-27T03:32:48.057Z,3.00
2018-09-27T03:35:15.559Z,2.90
2018-09-27T03:37:43.007Z,3.03
2018-09-27T03:40:10.448Z,3.10
2018-09-27T03:42:37.794Z,2.90
2018-09-27T03:45:05.309Z,3.23
2018-09-27T03:47:32.754Z,3.97
2018-09-27T03:50:00.149Z,3.00
2018-09-27T03:52:27.626Z,3.13
2018-09-27T03:54:55.010Z,3.10
2018-09-27T03:57:22.381Z,3.30
2018-09-27T03:59:49.813Z,3.20
2018-09-27T04:02:17.232Z,2.70
2018-09-27T04:04:44.685Z,2.97
2018-09-27T04:07:12.111Z,3.10
2018-09-27T04:09:39.611Z,2.80
2018-09-27T04:12:07.059Z,3.37
2018-09-27T04:14:34.449Z,2.90
2018-09-27T04:17:01.810Z,2.87
2018-09-27T04:19:29.206Z,3.30
2018-09-27T04:21:56.688Z,3.20
2018-09-27T04:24:24.022Z,2.90
2018-09-27T04:26:51.438Z,2.87
2018-09-27T04:29:18.838Z,3.50
2018-09-27T04:31:46.234Z,3.30
2018-09-27T04:34:13.761Z,3.03
2018-09-27T04:36:41.138Z,3.60
2018-09-27T04:39:09.958Z,3.40
2018-09-27T04:41:37.354Z,3.00
2018-09-27T04:44:04.769Z,3.30
2018-09-27T04:46:32.202Z,3.10
2018-09-27T04:48:59.867Z,3.63
2018-09-27T04:51:27.338Z,3.17
2018-09-27T04:53:54.903Z,3.67
2018-09-27T04:56:22.301Z,2.90
2018-09-27T04:58:49.694Z,3.00
2018-09-27T05:01:17.169Z,3.10
2018-09-27T05:03:44.861Z,3.23
2018-09-27T05:06:12.265Z,3.20
2018-09-27T05:08:39.633Z,3.50
2018-09-27T05:11:07.213Z,4.00
2018-09-27T05:13:34.602Z,3.90
2018-09-27T05:16:02.131Z,4.00
2018-09-27T05:18:29.454Z,3.53
2018-09-27T05:20:56.885Z,4.13
2018-09-27T05:23:24.273Z,4.50
2018-09-27T05:25:51.753Z,4.13
2018-09-27T05:28:19.117Z,4.37
2018-09-27T05:30:46.527Z,4.47
2018-09-27T05:33:13.887Z,4.77
2018-09-27T05:35:41.305Z,4.87
2018-09-27T05:38:08.818Z,4.23
2018-09-27T05:40:36.186Z,4.40
2018-09-27T05:43:03.582Z,4.83
2018-09-27T05:45:30.996Z,4.60
2018-09-27T05:47:58.373Z,4.70
2018-09-27T05:50:25.820Z,4.10
2018-09-27T05:52:53.222Z,4.03
2018-09-27T05:55:20.782Z,4.07
2018-09-27T05:57:48.574Z,4.70
2018-09-27T06:00:15.987Z,4.23
2018-09-27T06:02:43.370Z,5.17
2018-09-27T06:05:10.762Z,4.07
2018-09-27T06:07:38.185Z,4.07
2018-09-27T06:10:05.893Z,4.00
2018-09-27T06:12:33.363Z,4.40
2018-09-27T06:15:00.742Z,4.70
2018-09-27T06:17:28.145Z,4.20
2018-09-27T06:19:55.596Z,4.93
2018-09-27T06:22:22.948Z,4.00
2018-09-27T06:24:50.463Z,4.57
2018-09-27T06:27:17.838Z,4.90
2018-09-27T06:29:45.243Z,4.57
2018-09-27T06:32:12.835Z,145.60
2018-09-27T06:34:40.218Z,4.40
2018-09-27T06:37:07.737Z,4.70
2018-09-27T06:39:35.128Z,4.30
2018-09-27T06:42:02.522Z,4.87
2018-09-27T06:44:29.938Z,4.27
2018-09-27T06:46:57.317Z,4.30
2018-09-27T06:49:24.742Z,4.37
2018-09-27T06:51:52.253Z,4.43
2018-09-27T06:54:19.810Z,5.07
2018-09-27T06:56:47.305Z,5.27
2018-09-27T06:59:14.754Z,4.67
2018-09-27T07:01:42.147Z,4.43
2018-09-27T07:04:09.567Z,4.90
2018-09-27T07:06:36.994Z,4.50
2018-09-27T07:09:07.554Z,4.20
2018-09-27T07:11:34.998Z,4.80
2018-09-27T07:14:02.459Z,5.40
2018-09-27T07:16:29.835Z,4.50
2018-09-27T07:18:57.281Z,4.53
2018-09-27T07:21:24.666Z,5.10
2018-09-27T07:23:52.139Z,5.83
2018-09-27T07:26:19.623Z,5.70
2018-09-27T07:28:47.070Z,5.50
2018-09-27T07:31:14.503Z,5.47
2018-09-27T07:33:41.862Z,6.20
2018-09-27T07:36:09.250Z,5.70
2018-09-27T07:38:36.732Z,5.20
2018-09-27T07:41:04.064Z,5.53
2018-09-27T07:43:31.494Z,5.60
2018-09-27T07:45:58.889Z,5.50
2018-09-27T07:48:26.422Z,6.80
2018-09-27T07:50:53.788Z,6.30
2018-09-27T07:53:21.238Z,6.13
2018-09-27T07:55:48.626Z,6.53
2018-09-27T07:58:16.066Z,6.20
2018-09-27T08:00:43.430Z,5.93
2018-09-27T08:03:10.846Z,6.10
2018-09-27T08:05:38.464Z,5.67
2018-09-27T08:08:06.238Z,5.23
2018-09-27T08:10:33.800Z,5.87
2018-09-27T08:13:01.182Z,6.13
2018-09-27T08:15:28.642Z,5.90
2018-09-27T08:17:56.070Z,6.33
2018-09-27T08:20:23.551Z,5.40
2018-09-27T08:22:50.881Z,4.63
2018-09-27T08:25:18.245Z,6.17
2018-09-27T08:27:45.655Z,5.80
2018-09-27T08:30:13.146Z,6.03
2018-09-27T08:32:40.615Z,5.80
2018-09-27T08:35:08.116Z,4.37
2018-09-27T08:37:35.525Z,4.30
2018-09-27T08:40:03.016Z,4.27
2018-09-27T08:42:30.807Z,5.37
2018-09-27T08:44:58.442Z,5.87
2018-09-27T08:47:25.778Z,5.77
2018-09-27T08:49:53.349Z,5.70
2018-09-27T08:52:20.890Z,4.13
2018-09-27T08:54:48.486Z,5.63
2018-09-27T08:57:16.074Z,6.03
2018-09-27T08:59:43.578Z,21.40
2018-09-27T09:02:11.178Z,5.77
2018-09-27T09:04:38.649Z,30.63
2018-09-27T09:07:06.134Z,6.03
2018-09-27T09:09:33.651Z,5.73
2018-09-27T09:12:01.095Z,11.17
2018-09-27T09:14:28.527Z,7.63
2018-09-27T09:16:56.024Z,36.03
2018-09-27T09:19:23.454Z,6.27
2018-09-27T09:21:52.404Z,5.43
2018-09-27T09:24:19.830Z,7.80
2018-09-27T09:26:47.270Z,6.20
2018-09-27T09:29:14.784Z,5.90
2018-09-27T09:31:42.341Z,6.50
2018-09-27T09:34:09.790Z,10.50
2018-09-27T09:36:37.209Z,8.33
2018-09-27T09:39:06.705Z,39.57
2018-09-27T09:41:34.241Z,5.60
2018-09-27T09:44:01.822Z,6.63
2018-09-27T09:46:29.358Z,5.33
2018-09-27T09:48:56.766Z,5.33
2018-09-27T09:51:24.330Z,5.00
2018-09-27T09:53:51.902Z,5.37
2018-09-27T09:56:19.410Z,5.13
2018-09-27T09:58:46.863Z,4.70
2018-09-27T10:01:14.474Z,4.30
2018-09-27T10:03:42.091Z,4.97
2018-09-27T10:06:09.598Z,7.57
2018-09-27T10:08:37.136Z,5.30
2018-09-27T10:11:04.634Z,5.47
2018-09-27T10:13:32.250Z,9.27
2018-09-27T10:15:59.715Z,4.30
2018-09-27T10:18:27.181Z,7.50
2018-09-27T10:20:54.897Z,6.70
2018-09-27T10:23:22.406Z,4.23
2018-09-27T10:25:49.819Z,3.80
2018-09-27T10:28:17.337Z,4.10
2018-09-27T10:30:44.778Z,3.93
2018-09-27T10:33:12.348Z,6.07
2018-09-27T10:35:39.796Z,4.23
2018-09-27T10:38:07.254Z,18.63
2018-09-27T10:40:34.699Z,4.87
2018-09-27T10:43:02.219Z,3.27
2018-09-27T10:45:29.707Z,94.10
2018-09-27T10:47:57.363Z,206.17
2018-09-27T10:50:24.890Z,23.10
2018-09-27T10:52:52.398Z,6.70
2018-09-27T10:55:19.842Z,5.73
2018-09-27T10:57:47.325Z,4.10
2018-09-27T11:00:20.898Z,5.07
2018-09-27T11:02:48.368Z,4.77
2018-09-27T11:05:16.084Z,3.40
2018-09-27T11:07:43.613Z,4.50
2018-09-27T11:10:11.142Z,5.30
2018-09-27T11:12:38.583Z,4.60
2018-09-27T11:15:06.107Z,4.33
2018-09-27T11:17:33.792Z,4.43
2018-09-27T11:20:01.736Z,4.53
2018-09-27T11:22:29.229Z,4.20
2018-09-27T11:24:56.686Z,4.03
2018-09-27T11:27:24.238Z,3.97
2018-09-27T11:29:57.499Z,4.20
2018-09-27T11:32:29.782Z,116.63
2018-09-27T11:34:57.335Z,376.63
2018-09-27T11:37:24.983Z,480.20
2018-09-27T11:39:52.432Z,344.50
2018-09-27T11:42:20.035Z,127.63
2018-09-27T11:44:47.502Z,43.80
2018-09-27T11:47:14.946Z,316.00
2018-09-27T11:49:42.528Z,335.00
2018-09-27T11:52:09.858Z,101.70
2018-09-27T11:54:37.310Z,245.67
2018-09-27T11:57:04.852Z,296.90
2018-09-27T11:59:32.309Z,383.67
2018-09-27T12:01:59.802Z,201.10
2018-09-27T12:04:27.245Z,76.93
2018-09-27T12:06:54.809Z,190.70
2018-09-27T12:09:22.209Z,114.13
2018-09-27T12:11:49.661Z,23.27
2018-09-27T12:14:17.191Z,8.63
2018-09-27T12:16:44.802Z,6.07
2018-09-27T12:19:12.289Z,6.07
2018-09-27T12:21:39.781Z,116.97
2018-09-27T12:24:07.206Z,338.77
2018-09-27T12:26:34.664Z,140.67
2018-09-27T12:29:02.230Z,302.23
2018-09-27T12:31:29.713Z,372.20
2018-09-27T12:33:57.351Z,322.00
2018-09-27T12:36:24.807Z,205.67
2018-09-27T12:38:52.425Z,381.67
2018-09-27T12:41:19.983Z,373.37
2018-09-27T12:43:47.443Z,153.07
2018-09-27T12:46:15.003Z,27.70
2018-09-27T12:48:42.647Z,14.77
2018-09-27T12:51:10.032Z,19.10
2018-09-27T12:53:37.426Z,245.70
2018-09-27T12:56:04.937Z,167.63
2018-09-27T12:58:32.465Z,126.63
2018-09-27T13:01:00.066Z,181.97
2018-09-27T13:03:27.462Z,71.93
2018-09-27T13:05:54.986Z,158.07
2018-09-27T13:08:22.436Z,312.63
2018-09-27T13:10:49.957Z,133.50
2018-09-27T13:13:17.560Z,97.80
2018-09-27T13:15:44.964Z,463.63
2018-09-27T13:18:12.510Z,335.07
2018-09-27T13:20:40.043Z,54.73
2018-09-27T13:23:07.579Z,18.43
2018-09-27T13:25:35.212Z,109.80
2018-09-27T13:28:02.813Z,195.63
2018-09-27T13:30:30.339Z,136.47
2018-09-27T13:32:57.792Z,143.53
2018-09-27T13:35:25.237Z,41.47
2018-09-27T13:37:52.723Z,8.00
2018-09-27T13:40:20.186Z,10.77
2018-09-27T13:42:47.626Z,71.53
2018-09-27T13:45:15.097Z,115.87
2018-09-27T13:47:42.510Z,63.20
2018-09-27T13:50:09.997Z,19.23
2018-09-27T13:52:37.495Z,6.70
2018-09-27T13:55:05.261Z,5.00
2018-09-27T13:57:32.645Z,10.90
2018-09-27T14:00:00.141Z,63.93
2018-09-27T14:02:27.617Z,108.90
2018-09-27T14:04:55.131Z,53.60
2018-09-27T14:07:22.586Z,17.77
2018-09-27T14:09:50.035Z,38.67
2018-09-27T14:12:17.515Z,242.17
2018-09-27T14:14:45.079Z,366.07
2018-09-27T14:17:12.490Z,310.43
2018-09-27T14:19:39.991Z,370.70
2018-09-27T14:22:07.489Z,269.70
2018-09-27T14:24:35.072Z,246.03
2018-09-27T14:27:02.578Z,140.17
2018-09-27T14:29:30.013Z,58.40
2018-09-27T14:31:57.484Z,28.43
2018-09-27T14:34:24.965Z,53.77
2018-09-27T14:36:52.470Z,19.20
2018-09-27T14:39:19.991Z,65.43
2018-09-27T14:41:47.451Z,17.47
2018-09-27T14:44:14.978Z,14.53
2018-09-27T14:46:42.413Z,12.63
2018-09-27T14:49:09.969Z,8.70
2018-09-27T14:51:37.441Z,7.17
2018-09-27T14:54:04.981Z,6.70
2018-09-27T14:56:32.388Z,259.27
2018-09-27T14:58:59.956Z,20.17
2018-09-27T15:01:27.461Z,9.63
2018-09-27T15:03:54.923Z,7.90
2018-09-27T15:06:22.410Z,7.33
2018-09-27T15:08:49.867Z,999.90
2018-09-27T15:11:17.402Z,726.40
2018-09-27T15:13:44.881Z,129.10
2018-09-27T15:16:12.348Z,540.23
2018-09-27T15:18:39.815Z,630.50
2018-09-27T15:21:07.275Z,145.50
2018-09-27T15:23:34.797Z,34.77
2018-09-27T15:26:02.263Z,662.83
2018-09-27T15:28:29.701Z,724.03
2018-09-27T15:30:57.195Z,960.77
2018-09-27T15:33:24.624Z,685.57
2018-09-27T15:35:52.111Z,200.20
2018-09-27T15:38:19.557Z,42.23
2018-09-27T15:40:47.045Z,16.30
2018-09-27T15:43:14.498Z,10.03
2018-09-27T15:45:41.983Z,808.40
2018-09-27T15:48:09.379Z,268.57
2018-09-27T15:50:36.830Z,45.93
2018-09-27T15:53:04.275Z,15.50
2018-09-27T15:55:31.790Z,9.43
2018-09-27T15:57:59.235Z,86.57
2018-09-27T16:00:26.686Z,589.73
2018-09-27T16:02:54.163Z,110.93
2018-09-27T16:05:21.931Z,17.53
2018-09-27T16:07:49.473Z,734.50
2018-09-27T16:10:16.965Z,195.77
2018-09-27T16:12:44.511Z,709.27
2018-09-27T16:15:11.954Z,978.30
2018-09-27T16:17:39.476Z,335.10
2018-09-27T16:20:06.911Z,62.20
2018-09-27T16:22:34.414Z,18.30
2018-09-27T16:25:01.881Z,905.90
2018-09-27T16:27:29.405Z,159.53
2018-09-27T16:29:57.051Z,27.43
2018-09-27T16:32:24.547Z,10.33
2018-09-27T16:34:51.998Z,6.70
2018-09-27T16:37:19.532Z,5.50
2018-09-27T16:39:46.987Z,4.83
2018-09-27T16:42:14.442Z,4.87
2018-09-27T16:44:41.957Z,105.13
2018-09-27T16:47:09.435Z,7.40
2018-09-27T16:49:36.880Z,107.30
2018-09-27T16:52:04.366Z,39.57
2018-09-27T16:54:31.860Z,13.27
2018-09-27T16:56:59.346Z,7.50
2018-09-27T16:59:26.834Z,129.00
2018-09-27T17:01:54.268Z,218.23
2018-09-27T17:04:21.766Z,14.50
2018-09-27T17:06:49.247Z,6.50
2018-09-27T17:09:16.771Z,3.87
2018-09-27T17:11:44.270Z,4.50
2018-09-27T17:14:12.590Z,3.90
2018-09-27T17:16:40.187Z,3.73
2018-09-27T17:19:07.632Z,3.90
2018-09-27T17:21:35.133Z,3.80
2018-09-27T17:24:02.692Z,4.20
2018-09-27T17:26:30.257Z,3.90
2018-09-27T17:28:57.724Z,3.43
2018-09-27T17:31:25.205Z,3.60
2018-09-27T17:33:52.687Z,3.70
2018-09-27T17:36:20.142Z,3.90
2018-09-27T17:38:47.588Z,3.30
2018-09-27T17:41:15.086Z,3.40
2018-09-27T17:43:42.627Z,4.00
2018-09-27T17:46:10.083Z,3.77
2018-09-27T17:48:37.566Z,4.20
2018-09-27T17:51:05.084Z,3.60
2018-09-27T17:53:32.626Z,3.77
2018-09-27T17:56:00.003Z,3.20
2018-09-27T17:58:27.614Z,3.43
2018-09-27T18:00:55.095Z,3.40
2018-09-27T18:03:22.578Z,3.87
2018-09-27T18:05:50.062Z,4.20
2018-09-27T18:08:17.535Z,4.93
2018-09-27T18:10:45.102Z,4.97
2018-09-27T18:13:12.539Z,4.50
2018-09-27T18:15:39.996Z,10.07
2018-09-27T18:18:07.559Z,12.00
2018-09-27T18:20:35.074Z,4.10
2018-09-27T18:23:02.577Z,4.03
2018-09-27T18:25:30.096Z,3.90
2018-09-27T18:27:57.564Z,3.43
2018-09-27T18:30:25.081Z,3.43
2018-09-27T18:32:52.526Z,3.80
2018-09-27T18:35:20.049Z,3.10
2018-09-27T18:37:47.582Z,3.30
2018-09-27T18:40:15.134Z,3.70
2018-09-27T18:42:42.525Z,3.30
2018-09-27T18:45:10.032Z,3.27
2018-09-27T18:47:37.515Z,3.67
2018-09-27T18:50:05.122Z,4.60
2018-09-27T18:52:32.565Z,3.70
2018-09-27T18:55:00.072Z,3.50
2018-09-27T18:57:27.627Z,3.00
2018-09-27T18:59:55.089Z,3.30
2018-09-27T19:02:22.539Z,3.67
2018-09-27T19:04:50.019Z,3.97
2018-09-27T19:07:17.534Z,3.43
2018-09-27T19:09:45.023Z,3.43
2018-09-27T19:12:12.505Z,5.63
2018-09-27T19:14:39.999Z,3.90
2018-09-27T19:17:07.577Z,2.93
2018-09-27T19:19:34.969Z,3.40
2018-09-27T19:22:02.451Z,2.80
2018-09-27T19:24:29.910Z,3.10
2018-09-27T19:26:58.223Z,3.13
2018-09-27T19:29:25.683Z,2.97
2018-09-27T19:31:53.383Z,2.80
2018-09-27T19:34:20.929Z,3.10
2018-09-27T19:36:48.393Z,3.20
2018-09-27T19:39:15.955Z,3.63
2018-09-27T19:41:43.374Z,3.37
2018-09-27T19:44:10.832Z,3.53
2018-09-27T19:46:38.365Z,3.20
2018-09-27T19:49:05.839Z,3.50
2018-09-27T19:51:33.303Z,3.40
2018-09-27T19:54:00.794Z,3.20
2018-09-27T19:56:28.263Z,3.40
2018-09-27T19:58:55.758Z,3.33
2018-09-27T20:01:23.262Z,3.50
2018-09-27T20:03:50.747Z,3.33
2018-09-27T20:06:18.235Z,3.80
2018-09-27T20:08:45.725Z,3.53
2018-09-27T20:11:13.145Z,3.70
2018-09-27T20:13:40.602Z,5.20
2018-09-27T20:16:08.278Z,3.40
2018-09-27T20:18:35.712Z,3.40
2018-09-27T20:21:03.230Z,3.33
2018-09-27T20:23:30.682Z,3.37
2018-09-27T20:25:58.133Z,3.43
2018-09-27T20:28:25.611Z,3.47
2018-09-27T20:30:53.138Z,3.27
2018-09-27T20:33:20.642Z,3.23
2018-09-27T20:35:48.109Z,3.83
2018-09-27T20:38:15.569Z,3.40
2018-09-27T20:40:43.064Z,3.87
2018-09-27T20:43:10.489Z,4.23
2018-09-27T20:45:37.975Z,4.90
2018-09-27T20:48:05.483Z,5.73
2018-09-27T20:50:33.114Z,5.33
2018-09-27T20:53:00.653Z,4.90
2018-09-27T20:55:28.130Z,5.10
2018-09-27T20:57:55.818Z,4.37
2018-09-27T21:00:23.278Z,5.00
2018-09-27T21:02:50.708Z,4.37
2018-09-27T21:05:18.142Z,4.87
2018-09-27T21:07:45.607Z,4.03
2018-09-27T21:10:13.041Z,4.77
2018-09-27T21:12:40.506Z,4.03
2018-09-27T21:15:07.946Z,4.10
2018-09-27T21:17:35.379Z,4.10
2018-09-27T21:20:02.899Z,5.37
2018-09-27T21:22:30.322Z,4.93
2018-09-27T21:24:57.722Z,5.80
2018-09-27T21:27:25.153Z,7.40
2018-09-27T21:29:52.554Z,7.57
2018-09-27T21:32:19.998Z,9.20
2018-09-27T21:34:47.442Z,8.30
2018-09-27T21:37:14.901Z,7.23
2018-09-27T21:39:42.310Z,6.10
2018-09-27T21:42:09.747Z,6.47
2018-09-27T21:44:37.193Z,7.70
2018-09-27T21:47:04.719Z,8.00
2018-09-27T21:49:32.130Z,6.27
2018-09-27T21:51:59.541Z,5.70
2018-09-27T21:54:27.026Z,5.67
2018-09-27T21:56:54.442Z,6.00
2018-09-27T21:59:21.899Z,5.17
2018-09-27T22:01:49.312Z,5.97
2018-09-27T22:04:16.761Z,4.73
2018-09-27T22:06:45.250Z,5.37
2018-09-27T22:09:12.661Z,5.60
2018-09-27T22:11:40.086Z,5.33
2018-09-27T22:14:07.509Z,4.50
2018-09-27T22:16:34.935Z,3.50
2018-09-27T22:19:02.372Z,3.70
2018-09-27T22:21:29.766Z,3.60
2018-09-27T22:23:57.215Z,4.10
2018-09-27T22:26:24.750Z,4.40
2018-09-27T22:28:52.307Z,3.47
2018-09-27T22:31:19.709Z,4.07
2018-09-27T22:33:47.139Z,3.93
2018-09-27T22:36:14.590Z,3.63
2018-09-27T22:38:42.115Z,4.10
2018-09-27T22:41:09.516Z,3.70
2018-09-27T22:43:36.941Z,3.83
2018-09-27T22:46:04.345Z,3.83
2018-09-27T22:48:31.781Z,4.23
2018-09-27T22:50:59.181Z,4.00
2018-09-27T22:53:26.634Z,4.13
2018-09-27T22:55:54.083Z,4.07
2018-09-27T22:58:21.562Z,3.77
2018-09-27T23:00:49.014Z,4.10
2018-09-27T23:03:16.566Z,4.03
2018-09-27T23:05:44.056Z,3.77
2018-09-27T23:08:11.613Z,3.90
2018-09-27T23:10:39.048Z,4.00
2018-09-27T23:13:06.462Z,3.77
2018-09-27T23:15:33.917Z,4.27
2018-09-27T23:18:01.374Z,3.80
2018-09-27T23:20:28.816Z,3.57
2018-09-27T23:22:56.286Z,3.50
2018-09-27T23:25:23.704Z,3.63
2018-09-27T23:27:51.203Z,3.20
2018-09-27T23:30:18.629Z,3.53
2018-09-27T23:32:46.083Z,3.60
2018-09-27T23:35:13.543Z,3.53
2018-09-27T23:37:40.981Z,3.00
2018-09-27T23:40:08.393Z,3.00
2018-09-27T23:42:35.921Z,3.40
2018-09-27T23:45:03.413Z,3.70
2018-09-27T23:47:30.958Z,4.00
2018-09-27T23:49:58.401Z,3.50
2018-09-27T23:52:25.842Z,4.27
2018-09-27T23:54:53.294Z,3.83
2018-09-27T23:57:20.763Z,3.93
2018-09-27T23:59:48.184Z,3.70
